Terminal Aerodrome Forecast
Issued by NWS Charleston, WV

Current Version | Previous Version | Text Only | Print | Product List | Glossary Off
Versions: 1 2 3 4 5 6 7 8 9 10 11 12 13 14 15 16 17 18 19 20 21 22 23 24 25 26 27 28 29 30 31

861
FTUS41 KRLX 221430 AAA
TAFHTS
TAF AMD
KHTS 221430Z 2215/2312 VRB03KT 1SM -SHRA SCT006 OVC025
      TEMPO 2215/2218 5SM -SHRA BR SCT006 OVC015
     FM221800 18004KT 6SM BR HZ OVC025
      TEMPO 2218/2221 4SM -SHRA BR SCT006 BKN010
     FM222300 18004KT P6SM BKN040=

USA.gov is the U.S. government's official web portal to all federal, state and local government web resources and services.